Time;durP1;ratioP1;P1;durP2;ratioP2;P2;SDS_P1;SDS_P2;PMS_P1;PMS_P2;Temp;Humidity;BMP_temperature;BMP_pressure;BME280_temperature;BME280_humidity;BME280_pressure;Samples;Min_cycle;Max_cycle;Signal;HPM_P1;HPM_P2
2024/02/12 00:00:49;;;;;;;49.20;28.40;;;;;;;-128.00;-1.00;-1.00;103322;1252;1005571;-74
2024/02/12 00:03:39;;;;;;;42.60;28.80;;;;;;;-128.00;-1.00;-1.00;103272;1253;1060361;-74
2024/02/12 00:06:07;;;;;;;35.70;20.10;;;;;;;-128.00;-1.00;-1.00;105612;1252;1044894;-78
2024/02/12 00:08:33;;;;;;;26.60;19.40;;;;;;;-128.00;-1.00;-1.00;105638;1252;1047226;-74
2024/02/12 00:11:00;;;;;;;19.70;13.10;;;;;;;-128.00;-1.00;-1.00;103551;1253;1004135;-79
2024/02/12 00:13:27;;;;;;;22.40;13.70;;;;;;;-128.00;-1.00;-1.00;103425;1254;1004942;-75
2024/02/12 00:15:53;;;;;;;24.50;14.30;;;;;;;-128.00;-1.00;-1.00;103362;1254;1004454;-75
2024/02/12 00:18:23;;;;;;;20.70;12.70;;;;;;;-128.00;-1.00;-1.00;103421;1252;1004287;-78
2024/02/12 00:20:49;;;;;;;8.00;5.40;;;;;;;-128.00;-1.00;-1.00;103413;1253;1048212;-79
2024/02/12 00:23:16;;;;;;;12.20;7.90;;;;;;;-128.00;-1.00;-1.00;103317;1253;1004347;-79
2024/02/12 00:25:42;;;;;;;15.90;9.20;;;;;;;-128.00;-1.00;-1.00;103306;1253;1004975;-75
2024/02/12 00:28:08;;;;;;;6.70;4.20;;;;;;;-128.00;-1.00;-1.00;103344;1252;1005109;-77
2024/02/12 00:30:35;;;;;;;6.00;4.10;;;;;;;-128.00;-1.00;-1.00;103200;1253;1004298;-79
2024/02/12 00:33:06;;;;;;;7.50;5.80;;;;;;;-128.00;-1.00;-1.00;103331;1252;1004943;-74
2024/02/12 00:35:33;;;;;;;10.80;7.70;;;;;;;-128.00;-1.00;-1.00;103341;1253;1064502;-74
2024/02/12 00:38:03;;;;;;;5.60;4.10;;;;;;;-128.00;-1.00;-1.00;103228;1253;1005335;-74
2024/02/12 00:40:30;;;;;;;11.20;5.30;;;;;;;-128.00;-1.00;-1.00;103244;1253;1060511;-74
2024/02/12 00:42:57;;;;;;;19.30;8.10;;;;;;;-128.00;-1.00;-1.00;103290;1253;1003885;-79
2024/02/12 00:45:24;;;;;;;14.10;7.90;;;;;;;-128.00;-1.00;-1.00;103366;1252;1004480;-81
2024/02/12 00:47:50;;;;;;;24.70;12.50;;;;;;;-128.00;-1.00;-1.00;103352;1255;1004261;-79
2024/02/12 00:50:17;;;;;;;3.90;2.20;;;;;;;-128.00;-1.00;-1.00;103279;1253;1004584;-79
2024/02/12 00:52:44;;;;;;;3.20;1.30;;;;;;;-128.00;-1.00;-1.00;103257;1253;1004563;-75
2024/02/12 00:55:15;;;;;;;1.50;0.80;;;;;;;-128.00;-1.00;-1.00;103276;1252;1005265;-74
2024/02/12 00:57:43;;;;;;;1.30;0.70;;;;;;;-128.00;-1.00;-1.00;103324;1252;1047901;-78
2024/02/12 01:00:14;;;;;;;1.70;0.90;;;;;;;-128.00;-1.00;-1.00;103296;1253;1004580;-79
2024/02/12 01:02:45;;;;;;;3.60;1.00;;;;;;;-128.00;-1.00;-1.00;103276;1252;1058200;-79
2024/02/12 01:05:13;;;;;;;1.80;0.90;;;;;;;-128.00;-1.00;-1.00;103227;1253;1059729;-78
2024/02/12 01:07:40;;;;;;;2.10;1.20;;;;;;;-128.00;-1.00;-1.00;103266;1253;1004191;-79
2024/02/12 01:10:07;;;;;;;2.00;1.30;;;;;;;-128.00;-1.00;-1.00;103301;1252;1003985;-79
2024/02/12 01:12:34;;;;;;;1.10;0.70;;;;;;;-128.00;-1.00;-1.00;103311;1253;1005082;-74
2024/02/12 01:15:01;;;;;;;2.00;1.10;;;;;;;-128.00;-1.00;-1.00;103210;1253;1005376;-75
2024/02/12 01:17:29;;;;;;;2.40;1.20;;;;;;;-128.00;-1.00;-1.00;105190;1253;1003925;-78
2024/02/12 01:19:56;;;;;;;1.10;1.00;;;;;;;-128.00;-1.00;-1.00;104433;1253;1004114;-79
2024/02/12 01:22:23;;;;;;;1.00;0.60;;;;;;;-128.00;-1.00;-1.00;103736;1253;1004994;-74
2024/02/12 01:24:50;;;;;;;1.20;0.70;;;;;;;-128.00;-1.00;-1.00;103358;1252;1005065;-80
2024/02/12 01:27:16;;;;;;;2.70;1.50;;;;;;;-128.00;-1.00;-1.00;103260;1253;1004232;-75
2024/02/12 01:29:48;;;;;;;2.80;0.80;;;;;;;-128.00;-1.00;-1.00;103186;1252;1005520;-74
2024/02/12 01:32:15;;;;;;;2.30;1.40;;;;;;;-128.00;-1.00;-1.00;103242;1252;1045868;-74
2024/02/12 01:34:44;;;;;;;2.00;1.20;;;;;;;-128.00;-1.00;-1.00;104730;1252;1004267;-74
2024/02/12 01:37:11;;;;;;;3.40;1.20;;;;;;;-128.00;-1.00;-1.00;103285;1252;1063593;-79
2024/02/12 01:39:37;;;;;;;2.40;1.70;;;;;;;-128.00;-1.00;-1.00;103196;1253;1004784;-74
2024/02/12 01:42:13;;;;;;;1.10;0.60;;;;;;;-128.00;-1.00;-1.00;103169;1252;1003752;-79
2024/02/12 01:44:48;;;;;;;2.30;1.40;;;;;;;-128.00;-1.00;-1.00;103322;1253;1045001;-74
2024/02/12 01:47:15;;;;;;;5.40;4.00;;;;;;;-128.00;-1.00;-1.00;105665;1252;1047366;-79
2024/02/12 01:49:43;;;;;;;6.60;4.60;;;;;;;-128.00;-1.00;-1.00;105672;1252;1003997;-79
2024/02/12 01:52:13;;;;;;;14.80;6.40;;;;;;;-128.00;-1.00;-1.00;105670;1253;1005209;-75
2024/02/12 01:54:40;;;;;;;14.10;8.00;;;;;;;-128.00;-1.00;-1.00;105637;1252;1059147;-75
2024/02/12 01:57:09;;;;;;;12.10;7.70;;;;;;;-128.00;-1.00;-1.00;105535;1253;1005343;-79
2024/02/12 01:59:38;;;;;;;5.30;3.10;;;;;;;-128.00;-1.00;-1.00;105675;1251;1046807;-74
2024/02/12 02:02:04;;;;;;;4.80;3.10;;;;;;;-128.00;-1.00;-1.00;105294;1252;1062322;-78
2024/02/12 02:04:32;;;;;;;15.40;7.20;;;;;;;-128.00;-1.00;-1.00;103252;1255;1004139;-79
2024/02/12 02:06:59;;;;;;;8.70;5.20;;;;;;;-128.00;-1.00;-1.00;103302;1251;1004881;-74
2024/02/12 02:09:26;;;;;;;7.00;3.50;;;;;;;-128.00;-1.00;-1.00;103372;1253;1004862;-79
2024/02/12 02:11:53;;;;;;;4.30;2.40;;;;;;;-128.00;-1.00;-1.00;103301;1253;1004203;-74
2024/02/12 02:14:19;;;;;;;3.10;1.80;;;;;;;-128.00;-1.00;-1.00;103240;1253;1004637;-74
2024/02/12 02:16:47;;;;;;;2.40;1.60;;;;;;;-128.00;-1.00;-1.00;103243;1253;1004434;-78
2024/02/12 02:19:13;;;;;;;2.50;1.60;;;;;;;-128.00;-1.00;-1.00;103206;1257;1004554;-78
2024/02/12 02:21:40;;;;;;;2.50;1.60;;;;;;;-128.00;-1.00;-1.00;103219;1253;1004005;-74
2024/02/12 02:24:06;;;;;;;2.50;1.50;;;;;;;-128.00;-1.00;-1.00;103296;1253;1004257;-75
2024/02/12 02:26:34;;;;;;;1.90;0.90;;;;;;;-128.00;-1.00;-1.00;103215;1253;1005092;-78
2024/02/12 02:29:00;;;;;;;9.90;4.50;;;;;;;-128.00;-1.00;-1.00;103192;1253;1005541;-74
2024/02/12 02:31:27;;;;;;;3.40;2.10;;;;;;;-128.00;-1.00;-1.00;103221;1253;1005046;-74
2024/02/12 02:33:53;;;;;;;3.40;1.80;;;;;;;-128.00;-1.00;-1.00;103233;1253;1004363;-74
2024/02/12 02:36:20;;;;;;;4.50;2.90;;;;;;;-128.00;-1.00;-1.00;103204;1253;1004770;-75
2024/02/12 02:38:47;;;;;;;6.80;4.10;;;;;;;-128.00;-1.00;-1.00;103244;1253;1004392;-79
2024/02/12 02:41:14;;;;;;;4.50;2.90;;;;;;;-128.00;-1.00;-1.00;103244;1253;1004823;-74
2024/02/12 02:43:40;;;;;;;4.70;2.70;;;;;;;-128.00;-1.00;-1.00;103194;1253;1005498;-74
2024/02/12 02:46:07;;;;;;;5.00;3.20;;;;;;;-128.00;-1.00;-1.00;103232;1253;1004860;-74
2024/02/12 02:48:33;;;;;;;5.20;3.00;;;;;;;-128.00;-1.00;-1.00;103201;1253;1005998;-74
2024/02/12 02:50:59;;;;;;;3.00;1.70;;;;;;;-128.00;-1.00;-1.00;103215;1253;1004641;-79
2024/02/12 02:53:26;;;;;;;6.00;3.40;;;;;;;-128.00;-1.00;-1.00;103267;1253;1005262;-75
2024/02/12 02:55:52;;;;;;;5.50;2.70;;;;;;;-128.00;-1.00;-1.00;103266;1253;1005474;-75
2024/02/12 02:58:20;;;;;;;3.60;2.20;;;;;;;-128.00;-1.00;-1.00;103206;1253;1006658;-75
2024/02/12 03:00:47;;;;;;;6.90;2.80;;;;;;;-128.00;-1.00;-1.00;103220;1253;1003691;-79
2024/02/12 03:03:13;;;;;;;2.40;2.10;;;;;;;-128.00;-1.00;-1.00;103195;1253;1004894;-74
2024/02/12 03:05:40;;;;;;;8.00;3.50;;;;;;;-128.00;-1.00;-1.00;103234;1253;1004180;-74
2024/02/12 03:08:08;;;;;;;5.80;2.30;;;;;;;-128.00;-1.00;-1.00;103142;1253;1005041;-79
2024/02/12 03:10:34;;;;;;;3.70;2.50;;;;;;;-128.00;-1.00;-1.00;103173;1253;1004887;-79
2024/02/12 03:13:03;;;;;;;3.10;1.60;;;;;;;-128.00;-1.00;-1.00;103227;1253;1004892;-78
2024/02/12 03:15:34;;;;;;;5.50;4.00;;;;;;;-128.00;-1.00;-1.00;103254;1253;1062687;-79
2024/02/12 03:18:00;;;;;;;5.00;3.10;;;;;;;-128.00;-1.00;-1.00;103148;1257;1060406;-74
2024/02/12 03:20:26;;;;;;;7.80;4.70;;;;;;;-128.00;-1.00;-1.00;103166;1253;1004442;-75
2024/02/12 03:22:53;;;;;;;6.20;4.00;;;;;;;-128.00;-1.00;-1.00;103259;1253;1004342;-78
2024/02/12 03:25:20;;;;;;;5.20;3.40;;;;;;;-128.00;-1.00;-1.00;103278;1252;1004441;-75
2024/02/12 03:27:47;;;;;;;8.00;4.00;;;;;;;-128.00;-1.00;-1.00;104561;1252;1003895;-74
2024/02/12 03:30:14;;;;;;;5.50;2.90;;;;;;;-128.00;-1.00;-1.00;103178;1253;1005363;-75
2024/02/12 03:32:40;;;;;;;3.70;1.90;;;;;;;-128.00;-1.00;-1.00;104285;1252;1003791;-78
2024/02/12 03:35:06;;;;;;;11.10;10.00;;;;;;;-128.00;-1.00;-1.00;103234;1253;1004028;-74
2024/02/12 03:37:34;;;;;;;8.30;7.50;;;;;;;-128.00;-1.00;-1.00;103308;1252;1003951;-75
2024/02/12 03:40:00;;;;;;;11.00;8.80;;;;;;;-128.00;-1.00;-1.00;103289;1253;1004428;-74
2024/02/12 03:42:26;;;;;;;4.10;3.30;;;;;;;-128.00;-1.00;-1.00;103333;1253;1006901;-79
2024/02/12 03:44:56;;;;;;;3.80;2.70;;;;;;;-128.00;-1.00;-1.00;103259;1253;1005250;-74
2024/02/12 03:47:37;;;;;;;9.30;7.30;;;;;;;-128.00;-1.00;-1.00;103324;1253;1047138;-78
2024/02/12 04:01:07;;;;;;;3.90;2.10;;;;;;;-128.00;-1.00;-1.00;105645;1252;1044927;-79
2024/02/12 04:03:34;;;;;;;2.30;1.30;;;;;;;-128.00;-1.00;-1.00;105567;1252;1004188;-75
2024/02/12 04:06:00;;;;;;;11.90;4.70;;;;;;;-128.00;-1.00;-1.00;105635;1252;1005117;-75
2024/02/12 04:08:26;;;;;;;18.90;8.40;;;;;;;-128.00;-1.00;-1.00;103574;1253;1003567;-79
2024/02/12 04:10:55;;;;;;;19.10;8.70;;;;;;;-128.00;-1.00;-1.00;103322;1252;1003897;-74
2024/02/12 04:13:22;;;;;;;8.30;4.20;;;;;;;-128.00;-1.00;-1.00;103318;1253;1004695;-74
2024/02/12 04:15:49;;;;;;;68.80;48.40;;;;;;;-128.00;-1.00;-1.00;103373;1252;1004047;-75
2024/02/12 04:18:16;;;;;;;31.00;27.50;;;;;;;-128.00;-1.00;-1.00;103322;1253;1005752;-79
2024/02/12 04:20:43;;;;;;;11.10;10.00;;;;;;;-128.00;-1.00;-1.00;103334;1253;1004773;-79
2024/02/12 04:23:15;;;;;;;5.50;5.00;;;;;;;-128.00;-1.00;-1.00;103255;1254;1003764;-75
2024/02/12 04:25:41;;;;;;;2.70;1.60;;;;;;;-128.00;-1.00;-1.00;103281;1253;1045873;-79
2024/02/12 04:28:09;;;;;;;1.40;0.90;;;;;;;-128.00;-1.00;-1.00;103274;1253;1005243;-75
2024/02/12 04:30:36;;;;;;;10.30;8.50;;;;;;;-128.00;-1.00;-1.00;103294;1253;1006263;-75
2024/02/12 04:33:02;;;;;;;21.50;18.10;;;;;;;-128.00;-1.00;-1.00;103289;1253;1004732;-74
2024/02/12 04:35:30;;;;;;;6.70;5.40;;;;;;;-128.00;-1.00;-1.00;103252;1252;1005413;-79
2024/02/12 04:37:57;;;;;;;61.70;55.10;;;;;;;-128.00;-1.00;-1.00;103305;1253;1004596;-79
2024/02/12 04:40:24;;;;;;;61.30;54.80;;;;;;;-128.00;-1.00;-1.00;103327;1253;1005160;-79
2024/02/12 04:42:54;;;;;;;25.80;22.60;;;;;;;-128.00;-1.00;-1.00;103274;1252;1004887;-79
2024/02/12 04:45:20;;;;;;;8.20;6.10;;;;;;;-128.00;-1.00;-1.00;103294;1253;1058468;-79
2024/02/12 04:47:49;;;;;;;3.70;2.20;;;;;;;-128.00;-1.00;-1.00;103375;1253;1004484;-74
2024/02/12 04:50:16;;;;;;;2.20;2.00;;;;;;;-128.00;-1.00;-1.00;103257;1253;1048670;-79
2024/02/12 04:52:42;;;;;;;0.90;0.70;;;;;;;-128.00;-1.00;-1.00;103215;1253;1004998;-74
2024/02/12 04:55:10;;;;;;;2.20;1.40;;;;;;;-128.00;-1.00;-1.00;103261;1253;1003768;-75
2024/02/12 04:57:38;;;;;;;2.00;0.90;;;;;;;-128.00;-1.00;-1.00;103278;1253;1005396;-79
2024/02/12 05:00:05;;;;;;;2.60;2.20;;;;;;;-128.00;-1.00;-1.00;103236;1252;1004048;-79
2024/02/12 05:02:34;;;;;;;9.40;8.60;;;;;;;-128.00;-1.00;-1.00;103259;1256;1004660;-79
2024/02/12 05:05:00;;;;;;;7.60;6.90;;;;;;;-128.00;-1.00;-1.00;103409;1253;1046986;-79
2024/02/12 05:07:27;;;;;;;5.30;4.40;;;;;;;-128.00;-1.00;-1.00;103324;1253;1004582;-75
2024/02/12 05:09:53;;;;;;;5.40;4.80;;;;;;;-128.00;-1.00;-1.00;103322;1253;1004227;-74
2024/02/12 05:12:20;;;;;;;3.50;3.20;;;;;;;-128.00;-1.00;-1.00;103268;1256;1004807;-79
2024/02/12 05:14:46;;;;;;;3.00;2.40;;;;;;;-128.00;-1.00;-1.00;103212;1253;1005739;-74
2024/02/12 05:17:13;;;;;;;3.10;2.50;;;;;;;-128.00;-1.00;-1.00;103226;1257;1005129;-74
2024/02/12 05:22:34;;;;;;;2.30;1.80;;;;;;;-128.00;-1.00;-1.00;103303;1253;1059233;-76
2024/02/12 05:25:01;;;;;;;10.70;3.30;;;;;;;-128.00;-1.00;-1.00;103236;1255;1060009;-79
2024/02/12 05:27:28;;;;;;;4.70;2.80;;;;;;;-128.00;-1.00;-1.00;103269;1253;1004519;-78
2024/02/12 05:29:55;;;;;;;1.90;1.40;;;;;;;-128.00;-1.00;-1.00;103255;1253;1004792;-74
2024/02/12 05:32:23;;;;;;;2.00;1.30;;;;;;;-128.00;-1.00;-1.00;104440;1253;1003860;-74
2024/02/12 05:34:49;;;;;;;3.20;1.90;;;;;;;-128.00;-1.00;-1.00;103247;1253;1004276;-74
2024/02/12 05:37:16;;;;;;;2.50;1.80;;;;;;;-128.00;-1.00;-1.00;103273;1253;1004480;-79
2024/02/12 05:39:42;;;;;;;5.50;3.70;;;;;;;-128.00;-1.00;-1.00;104933;1251;1004939;-79
2024/02/12 05:42:09;;;;;;;11.10;7.80;;;;;;;-128.00;-1.00;-1.00;105674;1253;1003891;-79
2024/02/12 05:44:35;;;;;;;23.80;18.40;;;;;;;-128.00;-1.00;-1.00;105421;1253;1004261;-79
2024/02/12 05:47:02;;;;;;;12.50;10.70;;;;;;;-128.00;-1.00;-1.00;105560;1253;1004593;-79
2024/02/12 05:49:30;;;;;;;11.40;9.20;;;;;;;-128.00;-1.00;-1.00;103264;1253;1004318;-74
2024/02/12 05:51:57;;;;;;;11.80;6.80;;;;;;;-128.00;-1.00;-1.00;103446;1253;1003977;-79
2024/02/12 05:54:23;;;;;;;5.60;4.50;;;;;;;-128.00;-1.00;-1.00;103186;1253;1004122;-74
2024/02/12 05:56:50;;;;;;;17.60;11.90;;;;;;;-128.00;-1.00;-1.00;103895;1253;1004798;-79
2024/02/12 05:59:16;;;;;;;19.80;8.30;;;;;;;-128.00;-1.00;-1.00;105459;1256;1004803;-74
2024/02/12 06:01:44;;;;;;;13.40;9.70;;;;;;;-128.00;-1.00;-1.00;105616;1253;1004088;-74
2024/02/12 06:04:10;;;;;;;9.40;6.20;;;;;;;-128.00;-1.00;-1.00;104744;1253;1003692;-79
2024/02/12 06:06:38;;;;;;;4.20;2.50;;;;;;;-128.00;-1.00;-1.00;103638;1253;1004948;-78
2024/02/12 06:09:04;;;;;;;3.20;2.50;;;;;;;-128.00;-1.00;-1.00;104266;1253;1004052;-78
2024/02/12 06:11:31;;;;;;;3.60;2.20;;;;;;;-128.00;-1.00;-1.00;103790;1253;1004004;-79
2024/02/12 06:13:57;;;;;;;2.30;1.60;;;;;;;-128.00;-1.00;-1.00;103766;1253;1004012;-74
2024/02/12 06:16:24;;;;;;;3.40;2.50;;;;;;;-128.00;-1.00;-1.00;103538;1253;1004309;-79
2024/02/12 06:18:56;;;;;;;3.50;2.80;;;;;;;-128.00;-1.00;-1.00;103314;1253;1004097;-79
2024/02/12 06:21:22;;;;;;;3.40;2.30;;;;;;;-128.00;-1.00;-1.00;105663;1253;1062002;-79
2024/02/12 06:23:51;;;;;;;8.00;6.10;;;;;;;-128.00;-1.00;-1.00;105660;1252;1004236;-75
2024/02/12 06:26:21;;;;;;;4.30;2.90;;;;;;;-128.00;-1.00;-1.00;105598;1253;1058943;-79
2024/02/12 06:28:47;;;;;;;7.10;5.00;;;;;;;-128.00;-1.00;-1.00;105632;1253;1045572;-78
2024/02/12 06:31:14;;;;;;;6.90;4.50;;;;;;;-128.00;-1.00;-1.00;105663;1256;1004921;-74
2024/02/12 06:33:41;;;;;;;11.20;8.70;;;;;;;-128.00;-1.00;-1.00;105658;1253;1004832;-79
2024/02/12 06:36:08;;;;;;;6.90;4.70;;;;;;;-128.00;-1.00;-1.00;105666;1253;1004149;-79
2024/02/12 06:38:34;;;;;;;6.30;4.30;;;;;;;-128.00;-1.00;-1.00;105679;1251;1003994;-79
2024/02/12 06:41:00;;;;;;;4.50;3.10;;;;;;;-128.00;-1.00;-1.00;105642;1253;1004837;-74
2024/02/12 06:43:27;;;;;;;5.50;3.70;;;;;;;-128.00;-1.00;-1.00;105581;1253;1004166;-74
2024/02/12 06:45:54;;;;;;;7.00;3.00;;;;;;;-128.00;-1.00;-1.00;105651;1253;1004177;-75
2024/02/12 06:48:20;;;;;;;6.00;3.70;;;;;;;-128.00;-1.00;-1.00;104770;1253;1004679;-74
2024/02/12 06:50:46;;;;;;;3.90;3.00;;;;;;;-128.00;-1.00;-1.00;103296;1253;1004258;-75
2024/02/12 06:53:13;;;;;;;5.60;2.70;;;;;;;-128.00;-1.00;-1.00;103351;1253;1005421;-75
2024/02/12 06:55:39;;;;;;;6.50;4.50;;;;;;;-128.00;-1.00;-1.00;103417;1253;1004235;-74
2024/02/12 06:58:07;;;;;;;5.20;4.20;;;;;;;-128.00;-1.00;-1.00;103363;1253;1004303;-79
2024/02/12 07:00:35;;;;;;;6.60;4.80;;;;;;;-128.00;-1.00;-1.00;103382;1253;1004040;-74
2024/02/12 07:03:03;;;;;;;6.20;4.80;;;;;;;-128.00;-1.00;-1.00;103511;1253;1004721;-79
2024/02/12 07:05:30;;;;;;;4.00;2.90;;;;;;;-128.00;-1.00;-1.00;103373;1252;1045936;-80
2024/02/12 07:07:57;;;;;;;4.80;4.30;;;;;;;-128.00;-1.00;-1.00;103318;1253;1003798;-75
2024/02/12 07:10:23;;;;;;;4.10;2.80;;;;;;;-128.00;-1.00;-1.00;103384;1253;1004107;-75
2024/02/12 07:12:50;;;;;;;3.60;3.00;;;;;;;-128.00;-1.00;-1.00;103491;1254;1006902;-79
2024/02/12 07:15:16;;;;;;;2.30;1.60;;;;;;;-128.00;-1.00;-1.00;103432;1256;1004248;-77
2024/02/12 07:17:43;;;;;;;5.00;2.50;;;;;;;-128.00;-1.00;-1.00;103387;1253;1003920;-80
2024/02/12 07:20:10;;;;;;;14.80;6.10;;;;;;;-128.00;-1.00;-1.00;103466;1253;1004575;-74
2024/02/12 07:22:36;;;;;;;5.40;3.00;;;;;;;-128.00;-1.00;-1.00;103392;1253;1004469;-75
2024/02/12 07:25:04;;;;;;;6.40;3.70;;;;;;;-128.00;-1.00;-1.00;103414;1255;1003986;-74
2024/02/12 07:27:30;;;;;;;9.30;3.40;;;;;;;-128.00;-1.00;-1.00;103690;1253;1004237;-79
2024/02/12 07:29:57;;;;;;;10.10;6.00;;;;;;;-128.00;-1.00;-1.00;103661;1256;1004020;-74
2024/02/12 07:32:23;;;;;;;8.80;4.60;;;;;;;-128.00;-1.00;-1.00;103756;1251;1005600;-74
2024/02/12 07:34:50;;;;;;;9.20;4.30;;;;;;;-128.00;-1.00;-1.00;103589;1253;1005151;-79
2024/02/12 07:37:17;;;;;;;6.30;3.90;;;;;;;-128.00;-1.00;-1.00;103547;1253;1004715;-79
2024/02/12 07:39:44;;;;;;;7.70;5.70;;;;;;;-128.00;-1.00;-1.00;103589;1253;1003601;-74
2024/02/12 07:42:10;;;;;;;5.60;2.80;;;;;;;-128.00;-1.00;-1.00;103475;1253;1003715;-79
2024/02/12 07:44:37;;;;;;;6.90;4.20;;;;;;;-128.00;-1.00;-1.00;103433;1253;1005400;-79
2024/02/12 07:47:05;;;;;;;4.40;3.00;;;;;;;-128.00;-1.00;-1.00;103473;1253;1005162;-74
2024/02/12 07:49:32;;;;;;;3.60;1.70;;;;;;;-128.00;-1.00;-1.00;105601;1253;1004573;-80
2024/02/12 07:51:59;;;;;;;3.30;1.80;;;;;;;-128.00;-1.00;-1.00;105637;1253;1004490;-75
2024/02/12 07:54:28;;;;;;;3.70;1.90;;;;;;;-128.00;-1.00;-1.00;105591;1253;1004391;-75
2024/02/12 07:56:55;;;;;;;4.50;2.80;;;;;;;-128.00;-1.00;-1.00;105600;1252;1046523;-74
2024/02/12 07:59:22;;;;;;;5.10;2.60;;;;;;;-128.00;-1.00;-1.00;105613;1253;1003892;-75
2024/02/12 08:01:48;;;;;;;10.60;5.70;;;;;;;-128.00;-1.00;-1.00;105609;1253;1003595;-75
2024/02/12 08:04:15;;;;;;;18.20;8.90;;;;;;;-128.00;-1.00;-1.00;105601;1253;1004457;-79
2024/02/12 08:06:41;;;;;;;9.00;5.20;;;;;;;-128.00;-1.00;-1.00;105566;1252;1004647;-79
2024/02/12 08:09:08;;;;;;;8.30;5.10;;;;;;;-128.00;-1.00;-1.00;105597;1253;1004567;-79
2024/02/12 08:11:35;;;;;;;5.30;2.60;;;;;;;-128.00;-1.00;-1.00;105605;1253;1004892;-79
2024/02/12 08:14:02;;;;;;;3.90;2.00;;;;;;;-128.00;-1.00;-1.00;105579;1253;1004306;-79
2024/02/12 08:16:28;;;;;;;3.20;1.60;;;;;;;-128.00;-1.00;-1.00;105584;1253;1003768;-79
2024/02/12 08:18:54;;;;;;;5.60;2.90;;;;;;;-128.00;-1.00;-1.00;103863;1253;1003969;-75
2024/02/12 08:21:21;;;;;;;3.10;1.80;;;;;;;-128.00;-1.00;-1.00;103860;1255;1004158;-79
2024/02/12 08:23:47;;;;;;;6.10;2.70;;;;;;;-128.00;-1.00;-1.00;103662;1253;1004787;-75
2024/02/12 08:26:15;;;;;;;18.00;8.10;;;;;;;-128.00;-1.00;-1.00;103585;1253;1003985;-79
2024/02/12 08:28:42;;;;;;;7.20;3.20;;;;;;;-128.00;-1.00;-1.00;103556;1253;1004621;-75
2024/02/12 08:31:08;;;;;;;9.20;5.40;;;;;;;-128.00;-1.00;-1.00;103592;1253;1005027;-75
2024/02/12 08:33:36;;;;;;;4.30;2.80;;;;;;;-128.00;-1.00;-1.00;103528;1253;1004848;-75
2024/02/12 08:36:04;;;;;;;3.70;2.40;;;;;;;-128.00;-1.00;-1.00;103435;1253;1003786;-79
2024/02/12 08:38:31;;;;;;;3.30;2.00;;;;;;;-128.00;-1.00;-1.00;103494;1253;1004610;-75
2024/02/12 08:41:00;;;;;;;3.40;2.50;;;;;;;-128.00;-1.00;-1.00;103534;1253;1003732;-74
2024/02/12 08:43:26;;;;;;;2.90;1.60;;;;;;;-128.00;-1.00;-1.00;103646;1253;1047410;-74
2024/02/12 08:45:53;;;;;;;3.80;2.60;;;;;;;-128.00;-1.00;-1.00;103415;1253;1004230;-74
2024/02/12 08:48:19;;;;;;;3.20;1.60;;;;;;;-128.00;-1.00;-1.00;103677;1253;1004705;-75
2024/02/12 08:50:48;;;;;;;4.60;2.80;;;;;;;-128.00;-1.00;-1.00;104425;1252;1004398;-74
2024/02/12 08:53:15;;;;;;;3.90;2.00;;;;;;;-128.00;-1.00;-1.00;105532;1253;1058994;-79
2024/02/12 08:55:41;;;;;;;5.20;3.30;;;;;;;-128.00;-1.00;-1.00;105541;1252;1004271;-78
2024/02/12 08:58:10;;;;;;;5.80;3.10;;;;;;;-128.00;-1.00;-1.00;104209;1253;1004859;-74
2024/02/12 09:00:37;;;;;;;4.30;2.70;;;;;;;-128.00;-1.00;-1.00;104383;1253;1062780;-75
2024/02/12 09:03:04;;;;;;;2.60;1.70;;;;;;;-128.00;-1.00;-1.00;105593;1253;1003647;-75
2024/02/12 09:05:31;;;;;;;2.40;1.60;;;;;;;-128.00;-1.00;-1.00;105576;1253;1003326;-75
2024/02/12 09:07:57;;;;;;;3.90;1.70;;;;;;;-128.00;-1.00;-1.00;105560;1255;1003508;-74
2024/02/12 09:10:24;;;;;;;6.20;2.70;;;;;;;-128.00;-1.00;-1.00;105498;1252;1004979;-79
2024/02/12 09:12:51;;;;;;;2.30;1.50;;;;;;;-128.00;-1.00;-1.00;105542;1252;1003699;-79
2024/02/12 09:15:17;;;;;;;4.40;2.10;;;;;;;-128.00;-1.00;-1.00;105601;1252;1005128;-75
2024/02/12 09:17:47;;;;;;;2.80;2.50;;;;;;;-128.00;-1.00;-1.00;104285;1253;1003976;-79
2024/02/12 09:20:14;;;;;;;2.40;1.70;;;;;;;-128.00;-1.00;-1.00;103698;1253;1047211;-74
2024/02/12 09:22:41;;;;;;;4.70;1.90;;;;;;;-128.00;-1.00;-1.00;103548;1253;1005374;-74
2024/02/12 09:25:13;;;;;;;3.10;1.90;;;;;;;-128.00;-1.00;-1.00;103605;1253;1004962;-79
2024/02/12 09:27:45;;;;;;;3.90;1.80;;;;;;;-128.00;-1.00;-1.00;103605;1253;1057822;-79
2024/02/12 09:30:12;;;;;;;3.20;1.60;;;;;;;-128.00;-1.00;-1.00;103524;1255;1060969;-79
2024/02/12 09:32:38;;;;;;;1.90;1.30;;;;;;;-128.00;-1.00;-1.00;103527;1254;1004242;-79
2024/02/12 09:35:06;;;;;;;2.40;1.20;;;;;;;-128.00;-1.00;-1.00;103483;1253;1005393;-74
2024/02/12 09:37:33;;;;;;;1.50;1.20;;;;;;;-128.00;-1.00;-1.00;105613;1256;1004524;-74
2024/02/12 09:40:02;;;;;;;2.40;1.60;;;;;;;-128.00;-1.00;-1.00;105604;1253;1004387;-79
2024/02/12 09:42:31;;;;;;;;;;;;;;;-128.00;-1.00;-1.00;105519;1255;1059094;-74
2024/02/12 09:44:59;;;;;;;2.30;1.30;;;;;;;-128.00;-1.00;-1.00;105505;1253;1046074;-79
2024/02/12 09:47:31;;;;;;;3.10;1.40;;;;;;;-128.00;-1.00;-1.00;105541;1253;1003986;-79
2024/02/12 09:49:58;;;;;;;2.60;1.90;;;;;;;-128.00;-1.00;-1.00;105580;1252;1062395;-74
2024/02/12 09:52:26;;;;;;;3.90;2.00;;;;;;;-128.00;-1.00;-1.00;105575;1253;1005016;-75
2024/02/12 09:54:53;;;;;;;4.60;1.90;;;;;;;-128.00;-1.00;-1.00;105601;1253;1059134;-79
2024/02/12 09:57:19;;;;;;;4.50;2.20;;;;;;;-128.00;-1.00;-1.00;103889;1253;1004583;-79
2024/02/12 09:59:46;;;;;;;5.70;4.20;;;;;;;-128.00;-1.00;-1.00;103570;1255;1005528;-75
2024/02/12 10:02:13;;;;;;;3.10;2.50;;;;;;;-128.00;-1.00;-1.00;103488;1256;1004406;-74
2024/02/12 10:04:39;;;;;;;6.50;3.40;;;;;;;-128.00;-1.00;-1.00;103446;1253;1004703;-74
2024/02/12 10:07:06;;;;;;;6.10;2.90;;;;;;;-128.00;-1.00;-1.00;103425;1253;1004251;-74
2024/02/12 10:09:33;;;;;;;5.80;3.50;;;;;;;-128.00;-1.00;-1.00;103425;1258;1004567;-79
2024/02/12 10:12:09;;;;;;;23.40;5.90;;;;;;;-128.00;-1.00;-1.00;103633;1254;1005221;-74
2024/02/12 10:14:36;;;;;;;187.40;104.90;;;;;;;-128.00;-1.00;-1.00;103614;1253;1063034;-79
2024/02/12 10:17:02;;;;;;;58.90;34.90;;;;;;;-128.00;-1.00;-1.00;103505;1253;1004003;-79
2024/02/12 10:19:29;;;;;;;13.70;8.20;;;;;;;-128.00;-1.00;-1.00;103444;1253;1004281;-75
2024/02/12 10:21:58;;;;;;;83.80;53.00;;;;;;;-128.00;-1.00;-1.00;103476;1253;1004434;-75
2024/02/12 10:24:24;;;;;;;33.40;29.40;;;;;;;-128.00;-1.00;-1.00;103527;1253;1046648;-79
2024/02/12 10:26:51;;;;;;;21.00;19.20;;;;;;;-128.00;-1.00;-1.00;103593;1254;1003645;-74
2024/02/12 10:29:18;;;;;;;5.50;4.70;;;;;;;-128.00;-1.00;-1.00;103569;1255;1004756;-79
2024/02/12 10:31:46;;;;;;;13.30;10.10;;;;;;;-128.00;-1.00;-1.00;103738;1256;1004681;-81
2024/02/12 10:34:17;;;;;;;7.00;6.20;;;;;;;-128.00;-1.00;-1.00;103506;1256;1004326;-79
2024/02/12 10:36:47;;;;;;;4.20;2.30;;;;;;;-128.00;-1.00;-1.00;103597;1254;1046309;-74
2024/02/12 10:39:16;;;;;;;4.60;2.70;;;;;;;-128.00;-1.00;-1.00;103469;1254;1062928;-75
2024/02/12 10:41:46;;;;;;;4.60;3.30;;;;;;;-128.00;-1.00;-1.00;103298;1253;1057760;-74
2024/02/12 10:44:13;;;;;;;3.40;2.40;;;;;;;-128.00;-1.00;-1.00;103258;1255;1059944;-75
2024/02/12 10:46:40;;;;;;;40.20;25.00;;;;;;;-128.00;-1.00;-1.00;103350;1254;1004909;-79
2024/02/12 10:49:06;;;;;;;14.20;8.70;;;;;;;-128.00;-1.00;-1.00;103397;1257;1004109;-79
2024/02/12 10:51:35;;;;;;;48.10;37.20;;;;;;;-128.00;-1.00;-1.00;103429;1253;1004812;-78
2024/02/12 10:54:01;;;;;;;325.40;223.50;;;;;;;-128.00;-1.00;-1.00;103240;1257;1059202;-75
2024/02/12 10:56:29;;;;;;;111.90;72.00;;;;;;;-128.00;-1.00;-1.00;103273;1254;1004394;-74
2024/02/12 10:58:56;;;;;;;40.50;26.60;;;;;;;-128.00;-1.00;-1.00;103302;1253;1004820;-75
2024/02/12 11:01:23;;;;;;;24.80;17.40;;;;;;;-128.00;-1.00;-1.00;103314;1256;1004134;-79
2024/02/12 11:03:52;;;;;;;18.10;10.70;;;;;;;-128.00;-1.00;-1.00;103317;1257;1003379;-74
2024/02/12 11:06:19;;;;;;;;;;;;;;;-128.00;-1.00;-1.00;103395;1257;1059684;-74
2024/02/12 11:08:48;;;;;;;10.60;3.90;;;;;;;-128.00;-1.00;-1.00;103257;1254;1003998;-75
2024/02/12 11:11:18;;;;;;;151.90;90.90;;;;;;;-128.00;-1.00;-1.00;103465;1254;1047666;-74
2024/02/12 11:13:48;;;;;;;36.00;25.50;;;;;;;-128.00;-1.00;-1.00;103083;1254;1048197;-79
2024/02/12 11:16:15;;;;;;;13.60;10.00;;;;;;;-128.00;-1.00;-1.00;103204;1254;1062807;-79
2024/02/12 11:18:42;;;;;;;13.40;9.30;;;;;;;-128.00;-1.00;-1.00;103622;1257;1004520;-79
2024/02/12 11:21:10;;;;;;;7.80;4.50;;;;;;;-128.00;-1.00;-1.00;103331;1254;1005443;-75
2024/02/12 11:23:40;;;;;;;8.70;4.90;;;;;;;-128.00;-1.00;-1.00;103244;1253;1004519;-74
2024/02/12 11:26:07;;;;;;;31.40;18.30;;;;;;;-128.00;-1.00;-1.00;103132;1257;1047558;-74
2024/02/12 11:28:33;;;;;;;25.70;15.30;;;;;;;-128.00;-1.00;-1.00;103460;1254;1003729;-75